sensor_id;sensor_type;location;lat;lon;timestamp;pressure;altitude;pressure_sealevel;temperature;humidity
60212;BME280;46079;48.686;15.598;2022-12-29T00:02:09;100099.69;;;18.85;42.39
60212;BME280;46079;48.686;15.598;2022-12-29T00:04:34;100098.72;;;18.86;42.27
60212;BME280;46079;48.686;15.598;2022-12-29T00:07:00;100106.59;;;18.86;42.38
60212;BME280;46079;48.686;15.598;2022-12-29T00:09:26;100095.28;;;18.85;42.41
60212;BME280;46079;48.686;15.598;2022-12-29T00:11:52;100093.63;;;18.84;42.38
60212;BME280;46079;48.686;15.598;2022-12-29T00:14:17;100101.34;;;18.86;42.45
60212;BME280;46079;48.686;15.598;2022-12-29T00:17:01;100094.56;;;18.83;42.46
60212;BME280;46079;48.686;15.598;2022-12-29T00:19:28;100107.66;;;18.83;42.54
60212;BME280;46079;48.686;15.598;2022-12-29T00:22:13;100118.13;;;18.83;42.31
60212;BME280;46079;48.686;15.598;2022-12-29T00:24:58;100106.00;;;18.82;42.44
60212;BME280;46079;48.686;15.598;2022-12-29T00:27:43;100102.41;;;18.83;42.45
60212;BME280;46079;48.686;15.598;2022-12-29T00:30:26;100106.84;;;18.83;42.36
60212;BME280;46079;48.686;15.598;2022-12-29T00:33:14;100102.56;;;18.82;42.28
60212;BME280;46079;48.686;15.598;2022-12-29T00:36:23;100108.72;;;18.81;42.47
60212;BME280;46079;48.686;15.598;2022-12-29T00:38:52;100109.59;;;18.81;42.26
60212;BME280;46079;48.686;15.598;2022-12-29T00:41:37;100107.91;;;18.80;42.33
60212;BME280;46079;48.686;15.598;2022-12-29T00:44:21;100112.31;;;18.80;42.26
60212;BME280;46079;48.686;15.598;2022-12-29T00:46:46;100121.16;;;18.79;42.38
60212;BME280;46079;48.686;15.598;2022-12-29T00:49:13;100108.03;;;18.79;42.74
60212;BME280;46079;48.686;15.598;2022-12-29T00:52:03;100104.56;;;18.78;42.29
60212;BME280;46079;48.686;15.598;2022-12-29T00:54:31;100108.03;;;18.79;42.11
60212;BME280;46079;48.686;15.598;2022-12-29T00:56:57;100105.44;;;18.79;42.19
60212;BME280;46079;48.686;15.598;2022-12-29T00:59:23;100101.13;;;18.78;42.39
60212;BME280;46079;48.686;15.598;2022-12-29T01:01:50;100106.34;;;18.78;42.22
60212;BME280;46079;48.686;15.598;2022-12-29T01:04:16;100109.94;;;18.77;42.21
60212;BME280;46079;48.686;15.598;2022-12-29T01:06:41;100120.44;;;18.77;42.36
60212;BME280;46079;48.686;15.598;2022-12-29T01:09:07;100114.38;;;18.76;42.33
60212;BME280;46079;48.686;15.598;2022-12-29T01:11:51;100120.44;;;18.77;42.35
60212;BME280;46079;48.686;15.598;2022-12-29T01:14:18;100126.59;;;18.76;42.36
60212;BME280;46079;48.686;15.598;2022-12-29T01:16:45;100127.47;;;18.76;42.27
60212;BME280;46079;48.686;15.598;2022-12-29T01:19:10;100131.84;;;18.76;42.24
60212;BME280;46079;48.686;15.598;2022-12-29T01:21:36;100129.38;;;18.74;42.38
60212;BME280;46079;48.686;15.598;2022-12-29T01:24:01;100120.66;;;18.74;42.31
60212;BME280;46079;48.686;15.598;2022-12-29T01:26:27;100118.88;;;18.74;42.36
60212;BME280;46079;48.686;15.598;2022-12-29T01:28:52;100123.28;;;18.74;42.36
60212;BME280;46079;48.686;15.598;2022-12-29T01:31:18;100125.06;;;18.73;42.44
60212;BME280;46079;48.686;15.598;2022-12-29T01:33:43;100126.00;;;18.72;42.32
60212;BME280;46079;48.686;15.598;2022-12-29T01:36:11;100119.94;;;18.72;42.22
60212;BME280;46079;48.686;15.598;2022-12-29T01:38:38;100125.16;;;18.72;42.38
60212;BME280;46079;48.686;15.598;2022-12-29T01:41:05;100124.34;;;18.71;42.24
60212;BME280;46079;48.686;15.598;2022-12-29T01:43:48;100128.75;;;18.71;42.16
60212;BME280;46079;48.686;15.598;2022-12-29T01:46:30;100126.13;;;18.71;42.34
60212;BME280;46079;48.686;15.598;2022-12-29T01:54:42;100122.78;;;18.69;42.21
60212;BME280;46079;48.686;15.598;2022-12-29T01:57:12;100120.19;;;18.69;42.37
60212;BME280;46079;48.686;15.598;2022-12-29T01:59:43;100109.69;;;18.69;42.19
60212;BME280;46079;48.686;15.598;2022-12-29T02:02:11;100113.25;;;18.67;42.22
60212;BME280;46079;48.686;15.598;2022-12-29T02:04:40;100102.78;;;18.67;42.17
60212;BME280;46079;48.686;15.598;2022-12-29T02:07:15;100096.69;;;18.67;42.24
60212;BME280;46079;48.686;15.598;2022-12-29T02:09:42;100095.03;;;18.66;42.19
60212;BME280;46079;48.686;15.598;2022-12-29T02:12:09;100092.53;;;18.64;42.12
60212;BME280;46079;48.686;15.598;2022-12-29T02:14:35;100095.88;;;18.66;42.28
60212;BME280;46079;48.686;15.598;2022-12-29T02:23:10;100077.69;;;18.65;42.16
60212;BME280;46079;48.686;15.598;2022-12-29T02:28:33;100071.56;;;18.64;42.06
60212;BME280;46079;48.686;15.598;2022-12-29T02:34:28;100065.66;;;18.62;42.27
60212;BME280;46079;48.686;15.598;2022-12-29T02:37:09;100067.41;;;18.62;42.21
60212;BME280;46079;48.686;15.598;2022-12-29T02:39:52;100069.22;;;18.61;42.09
60212;BME280;46079;48.686;15.598;2022-12-29T02:45:14;100054.44;;;18.60;42.25
60212;BME280;46079;48.686;15.598;2022-12-29T02:50:23;100062.31;;;18.60;42.08
60212;BME280;46079;48.686;15.598;2022-12-29T02:53:02;100063.28;;;18.59;42.29
60212;BME280;46079;48.686;15.598;2022-12-29T02:55:30;100065.03;;;18.59;42.30
60212;BME280;46079;48.686;15.598;2022-12-29T02:58:20;100064.22;;;18.58;42.02
60212;BME280;46079;48.686;15.598;2022-12-29T03:03:48;100067.81;;;18.57;42.04
60212;BME280;46079;48.686;15.598;2022-12-29T03:06:26;100062.56;;;18.57;42.03
60212;BME280;46079;48.686;15.598;2022-12-29T03:15:25;100057.44;;;18.56;42.26
60212;BME280;46079;48.686;15.598;2022-12-29T03:18:21;100064.47;;;18.55;41.96
60212;BME280;46079;48.686;15.598;2022-12-29T03:20:55;100063.63;;;18.55;42.21
60212;BME280;46079;48.686;15.598;2022-12-29T03:23:24;100061.84;;;18.55;42.24
60212;BME280;46079;48.686;15.598;2022-12-29T03:25:54;100065.44;;;18.54;42.17
60212;BME280;46079;48.686;15.598;2022-12-29T03:28:29;100066.38;;;18.53;42.16
60212;BME280;46079;48.686;15.598;2022-12-29T03:30:57;100070.66;;;18.54;42.18
60212;BME280;46079;48.686;15.598;2022-12-29T03:33:27;100066.38;;;18.53;42.18
60212;BME280;46079;48.686;15.598;2022-12-29T03:35:57;100067.34;;;18.52;42.21
60212;BME280;46079;48.686;15.598;2022-12-29T03:38:33;100063.75;;;18.53;42.13
60212;BME280;46079;48.686;15.598;2022-12-29T03:41:04;100069.94;;;18.52;42.27
60212;BME280;46079;48.686;15.598;2022-12-29T03:43:32;100073.41;;;18.53;42.09
60212;BME280;46079;48.686;15.598;2022-12-29T03:45:58;100066.50;;;18.52;42.12
60212;BME280;46079;48.686;15.598;2022-12-29T03:48:24;100072.69;;;18.51;42.09
60212;BME280;46079;48.686;15.598;2022-12-29T03:50:49;100071.84;;;18.50;42.21
60212;BME280;46079;48.686;15.598;2022-12-29T03:53:14;100066.63;;;18.50;42.02
60212;BME280;46079;48.686;15.598;2022-12-29T03:55:40;100066.63;;;18.50;42.04
60212;BME280;46079;48.686;15.598;2022-12-29T03:58:05;100078.88;;;18.50;41.93
60212;BME280;46079;48.686;15.598;2022-12-29T04:00:31;100078.06;;;18.49;42.03
60212;BME280;46079;48.686;15.598;2022-12-29T04:02:56;100078.06;;;18.49;42.03
60212;BME280;46079;48.686;15.598;2022-12-29T04:05:22;100073.66;;;18.50;42.03
60212;BME280;46079;48.686;15.598;2022-12-29T04:07:47;100074.59;;;18.49;41.92
60212;BME280;46079;48.686;15.598;2022-12-29T04:10:13;100071.13;;;18.48;41.68
60212;BME280;46079;48.686;15.598;2022-12-29T04:12:38;100065.88;;;18.48;41.90
60212;BME280;46079;48.686;15.598;2022-12-29T04:15:04;100067.69;;;18.48;41.95
60212;BME280;46079;48.686;15.598;2022-12-29T04:17:30;100064.25;;;18.47;42.02
60212;BME280;46079;48.686;15.598;2022-12-29T04:19:55;100074.72;;;18.47;42.06
60212;BME280;46079;48.686;15.598;2022-12-29T04:22:40;100078.16;;;18.48;41.96
60212;BME280;46079;48.686;15.598;2022-12-29T04:25:06;100070.31;;;18.48;41.96
60212;BME280;46079;48.686;15.598;2022-12-29T04:27:32;100081.59;;;18.48;42.00
60212;BME280;46079;48.686;15.598;2022-12-29T04:29:57;100075.53;;;18.48;41.87
60212;BME280;46079;48.686;15.598;2022-12-29T04:32:22;100070.31;;;18.48;41.91
60212;BME280;46079;48.686;15.598;2022-12-29T04:34:48;100081.59;;;18.48;41.95
60212;BME280;46079;48.686;15.598;2022-12-29T04:37:13;100079.94;;;18.47;42.10
60212;BME280;46079;48.686;15.598;2022-12-29T04:39:39;100080.78;;;18.48;41.97
60212;BME280;46079;48.686;15.598;2022-12-29T04:42:04;100080.78;;;18.48;42.02
60212;BME280;46079;48.686;15.598;2022-12-29T04:44:29;100075.53;;;18.48;41.98
60212;BME280;46079;48.686;15.598;2022-12-29T04:46:55;100081.59;;;18.48;41.90
60212;BME280;46079;48.686;15.598;2022-12-29T04:49:20;100079.94;;;18.47;42.04
60212;BME280;46079;48.686;15.598;2022-12-29T04:51:46;100082.56;;;18.47;41.88
60212;BME280;46079;48.686;15.598;2022-12-29T04:54:11;100079.13;;;18.47;42.11
60212;BME280;46079;48.686;15.598;2022-12-29T04:56:36;100080.78;;;18.48;42.00
60212;BME280;46079;48.686;15.598;2022-12-29T04:59:02;100085.19;;;18.47;41.90
60212;BME280;46079;48.686;15.598;2022-12-29T05:01:27;100079.00;;;18.48;41.82
60212;BME280;46079;48.686;15.598;2022-12-29T05:03:53;100085.19;;;18.47;42.00
60212;BME280;46079;48.686;15.598;2022-12-29T05:06:21;100086.03;;;18.48;41.94
60212;BME280;46079;48.686;15.598;2022-12-29T05:08:46;100085.19;;;18.47;41.85
60212;BME280;46079;48.686;15.598;2022-12-29T05:11:12;100086.03;;;18.48;41.96
60212;BME280;46079;48.686;15.598;2022-12-29T05:13:37;100076.38;;;18.48;41.82
60212;BME280;46079;48.686;15.598;2022-12-29T05:16:03;100081.59;;;18.48;41.80
60212;BME280;46079;48.686;15.598;2022-12-29T05:18:28;100077.22;;;18.49;41.93
60212;BME280;46079;48.686;15.598;2022-12-29T05:20:54;100083.41;;;18.48;41.93
60212;BME280;46079;48.686;15.598;2022-12-29T05:23:19;100084.13;;;18.50;41.79
60212;BME280;46079;48.686;15.598;2022-12-29T05:25:44;100084.13;;;18.50;41.87
60212;BME280;46079;48.686;15.598;2022-12-29T05:28:11;100092.94;;;18.49;41.88
60212;BME280;46079;48.686;15.598;2022-12-29T05:30:36;100088.53;;;18.49;41.74
60212;BME280;46079;48.686;15.598;2022-12-29T05:33:01;100088.53;;;18.49;41.97
60212;BME280;46079;48.686;15.598;2022-12-29T05:35:27;100083.28;;;18.49;41.79
60212;BME280;46079;48.686;15.598;2022-12-29T05:37:52;100078.88;;;18.50;41.72
60212;BME280;46079;48.686;15.598;2022-12-29T05:40:18;100078.06;;;18.49;41.86
60212;BME280;46079;48.686;15.598;2022-12-29T05:42:43;100085.78;;;18.51;41.72
60212;BME280;46079;48.686;15.598;2022-12-29T05:45:09;100082.31;;;18.50;41.72
60212;BME280;46079;48.686;15.598;2022-12-29T05:47:34;100091.88;;;18.51;41.91
60212;BME280;46079;48.686;15.598;2022-12-29T05:50:00;100086.63;;;18.51;41.71
60212;BME280;46079;48.686;15.598;2022-12-29T05:52:26;100090.91;;;18.52;41.79
60212;BME280;46079;48.686;15.598;2022-12-29T05:54:51;100092.69;;;18.52;41.68
60212;BME280;46079;48.686;15.598;2022-12-29T05:57:17;100088.28;;;18.52;41.61
60212;BME280;46079;48.686;15.598;2022-12-29T05:59:42;100083.88;;;18.53;41.74
60212;BME280;46079;48.686;15.598;2022-12-29T06:02:09;100093.53;;;18.52;41.73
60212;BME280;46079;48.686;15.598;2022-12-29T06:04:34;100094.34;;;18.53;41.68
60212;BME280;46079;48.686;15.598;2022-12-29T06:07:00;100089.13;;;18.53;41.83
60212;BME280;46079;48.686;15.598;2022-12-29T06:09:25;100083.75;;;18.54;41.75
60212;BME280;46079;48.686;15.598;2022-12-29T06:11:51;100089.94;;;18.53;41.64
60212;BME280;46079;48.686;15.598;2022-12-29T06:14:16;100083.03;;;18.52;41.58
60212;BME280;46079;48.686;15.598;2022-12-29T06:16:41;100084.59;;;18.55;41.69
60212;BME280;46079;48.686;15.598;2022-12-29T06:19:07;100086.38;;;18.54;41.59
60212;BME280;46079;48.686;15.598;2022-12-29T06:21:33;100084.59;;;18.55;41.73
60212;BME280;46079;48.686;15.598;2022-12-29T06:23:58;100076.72;;;18.55;41.66
60212;BME280;46079;48.686;15.598;2022-12-29T06:26:24;100077.56;;;18.55;41.78
60212;BME280;46079;48.686;15.598;2022-12-29T06:28:49;100070.53;;;18.56;41.69
60212;BME280;46079;48.686;15.598;2022-12-29T06:31:15;100085.31;;;18.57;41.58
60212;BME280;46079;48.686;15.598;2022-12-29T06:33:40;100085.31;;;18.57;41.64
60212;BME280;46079;48.686;15.598;2022-12-29T06:36:06;100085.31;;;18.57;41.55
60212;BME280;46079;48.686;15.598;2022-12-29T06:38:31;100086.97;;;18.58;41.60
60212;BME280;46079;48.686;15.598;2022-12-29T06:40:57;100088.63;;;18.59;41.68
60212;BME280;46079;48.686;15.598;2022-12-29T06:43:22;100096.63;;;18.57;41.86
60212;BME280;46079;48.686;15.598;2022-12-29T06:45:48;100093.03;;;18.58;41.57
60212;BME280;46079;48.686;15.598;2022-12-29T06:48:13;100100.06;;;18.58;41.60
60212;BME280;46079;48.686;15.598;2022-12-29T06:50:38;100100.88;;;18.58;41.66
60212;BME280;46079;48.686;15.598;2022-12-29T06:53:04;100110.44;;;18.59;41.73
60212;BME280;46079;48.686;15.598;2022-12-29T06:55:29;100111.25;;;18.60;41.54
60212;BME280;46079;48.686;15.598;2022-12-29T06:57:56;100113.88;;;18.60;41.62
60212;BME280;46079;48.686;15.598;2022-12-29T07:00:23;100116.38;;;18.61;41.75
60212;BME280;46079;48.686;15.598;2022-12-29T07:02:49;100112.91;;;18.61;41.56
60212;BME280;46079;48.686;15.598;2022-12-29T07:05:14;100104.09;;;18.62;41.62
60212;BME280;46079;48.686;15.598;2022-12-29T07:07:39;100111.13;;;18.61;41.95
60212;BME280;46079;48.686;15.598;2022-12-29T07:10:05;100110.19;;;18.62;41.55
60212;BME280;46079;48.686;15.598;2022-12-29T07:12:31;100116.25;;;18.63;41.65
60212;BME280;46079;48.686;15.598;2022-12-29T07:14:56;100114.56;;;18.62;41.69
60212;BME280;46079;48.686;15.598;2022-12-29T07:17:22;100108.41;;;18.63;41.48
60212;BME280;46079;48.686;15.598;2022-12-29T07:19:47;100106.59;;;18.63;41.61
60212;BME280;46079;48.686;15.598;2022-12-29T07:22:12;100113.50;;;18.64;41.67
60212;BME280;46079;48.686;15.598;2022-12-29T07:24:38;100115.28;;;18.64;41.54
60212;BME280;46079;48.686;15.598;2022-12-29T07:27:03;100113.50;;;18.64;41.52
60212;BME280;46079;48.686;15.598;2022-12-29T07:29:29;100108.25;;;18.64;41.40
60212;BME280;46079;48.686;15.598;2022-12-29T07:31:54;100100.28;;;18.66;41.58
60212;BME280;46079;48.686;15.598;2022-12-29T07:34:20;100099.47;;;18.65;41.58
60212;BME280;46079;48.686;15.598;2022-12-29T07:36:45;100095.88;;;18.66;41.57
60212;BME280;46079;48.686;15.598;2022-12-29T07:39:11;100093.25;;;18.66;41.50
60212;BME280;46079;48.686;15.598;2022-12-29T07:41:36;100090.63;;;18.66;41.52
60212;BME280;46079;48.686;15.598;2022-12-29T07:44:02;100103.63;;;18.68;41.61
60212;BME280;46079;48.686;15.598;2022-12-29T07:46:28;100101.00;;;18.68;41.15
60212;BME280;46079;48.686;15.598;2022-12-29T07:48:53;100104.44;;;18.69;41.64
60212;BME280;46079;48.686;15.598;2022-12-29T07:51:18;100094.81;;;18.69;41.64
60212;BME280;46079;48.686;15.598;2022-12-29T07:53:44;100106.09;;;18.70;41.67
60212;BME280;46079;48.686;15.598;2022-12-29T07:56:09;100108.72;;;18.70;41.63
60212;BME280;46079;48.686;15.598;2022-12-29T07:58:35;100107.78;;;18.71;41.76
60212;BME280;46079;48.686;15.598;2022-12-29T08:01:00;100100.75;;;18.71;41.77
60212;BME280;46079;48.686;15.598;2022-12-29T08:03:26;100109.44;;;18.72;41.75
60212;BME280;46079;48.686;15.598;2022-12-29T08:05:51;100112.91;;;18.72;41.73
60212;BME280;46079;48.686;15.598;2022-12-29T08:08:17;100109.44;;;18.72;41.77
60212;BME280;46079;48.686;15.598;2022-12-29T08:10:42;100110.28;;;18.72;41.63
60212;BME280;46079;48.686;15.598;2022-12-29T08:13:08;100118.03;;;18.74;41.59
60212;BME280;46079;48.686;15.598;2022-12-29T08:15:37;100109.34;;;18.73;41.54
60212;BME280;46079;48.686;15.598;2022-12-29T08:18:02;100107.53;;;18.74;41.71
60212;BME280;46079;48.686;15.598;2022-12-29T08:20:28;100104.00;;;18.75;42.19
60212;BME280;46079;48.686;15.598;2022-12-29T08:22:53;100108.25;;;18.76;41.82
60212;BME280;46079;48.686;15.598;2022-12-29T08:25:18;100113.50;;;18.76;41.75
60212;BME280;46079;48.686;15.598;2022-12-29T08:27:44;100111.75;;;18.76;41.75
60212;BME280;46079;48.686;15.598;2022-12-29T08:30:10;100107.31;;;18.77;41.51
60212;BME280;46079;48.686;15.598;2022-12-29T08:32:36;100109.81;;;18.78;41.79
60212;BME280;46079;48.686;15.598;2022-12-29T08:35:02;100111.59;;;18.78;41.74
60212;BME280;46079;48.686;15.598;2022-12-29T08:37:27;100109.81;;;18.78;41.70
60212;BME280;46079;48.686;15.598;2022-12-29T08:39:52;100108.03;;;18.79;41.66
60212;BME280;46079;48.686;15.598;2022-12-29T08:42:18;100114.13;;;18.79;41.55
60212;BME280;46079;48.686;15.598;2022-12-29T08:44:43;100106.25;;;18.79;42.17
60212;BME280;46079;48.686;15.598;2022-12-29T08:47:10;100109.69;;;18.80;41.69
60212;BME280;46079;48.686;15.598;2022-12-29T08:49:36;100114.94;;;18.80;41.76
60212;BME280;46079;48.686;15.598;2022-12-29T08:52:01;100100.88;;;18.81;41.75
60212;BME280;46079;48.686;15.598;2022-12-29T08:54:27;100100.88;;;18.81;41.76
60212;BME280;46079;48.686;15.598;2022-12-29T08:56:53;100110.41;;;18.82;41.75
60212;BME280;46079;48.686;15.598;2022-12-29T08:59:19;100110.41;;;18.82;41.51
60212;BME280;46079;48.686;15.598;2022-12-29T09:01:54;100102.56;;;18.82;41.77
60212;BME280;46079;48.686;15.598;2022-12-29T09:04:20;100097.16;;;18.83;41.73
60212;BME280;46079;48.686;15.598;2022-12-29T09:06:46;100098.00;;;18.84;41.89
60212;BME280;46079;48.686;15.598;2022-12-29T09:09:12;100091.00;;;18.84;41.63
60212;BME280;46079;48.686;15.598;2022-12-29T09:11:37;100099.69;;;18.85;41.70
60212;BME280;46079;48.686;15.598;2022-12-29T09:14:03;100099.69;;;18.85;41.74
60212;BME280;46079;48.686;15.598;2022-12-29T09:16:29;100111.00;;;18.85;41.80
60212;BME280;46079;48.686;15.598;2022-12-29T09:18:54;100102.16;;;18.86;41.67
60212;BME280;46079;48.686;15.598;2022-12-29T09:21:20;100103.03;;;18.87;41.78
60212;BME280;46079;48.686;15.598;2022-12-29T09:23:46;100107.31;;;18.88;41.65
60212;BME280;46079;48.686;15.598;2022-12-29T09:26:11;100093.38;;;18.87;41.57
60212;BME280;46079;48.686;15.598;2022-12-29T09:28:37;100088.13;;;18.87;41.78
60212;BME280;46079;48.686;15.598;2022-12-29T09:31:02;100077.50;;;18.89;41.65
60212;BME280;46079;48.686;15.598;2022-12-29T09:33:28;100072.25;;;18.89;41.81
60212;BME280;46079;48.686;15.598;2022-12-29T09:35:56;100070.50;;;18.90;41.77
60212;BME280;46079;48.686;15.598;2022-12-29T09:38:23;100062.50;;;18.91;41.77
60212;BME280;46079;48.686;15.598;2022-12-29T09:40:54;100060.84;;;18.90;41.72
60212;BME280;46079;48.686;15.598;2022-12-29T09:43:34;100057.25;;;18.91;41.58
60212;BME280;46079;48.686;15.598;2022-12-29T09:48:47;100070.25;;;18.93;41.57
60212;BME280;46079;48.686;15.598;2022-12-29T09:51:18;100068.56;;;18.92;41.49
60212;BME280;46079;48.686;15.598;2022-12-29T09:53:52;100080.72;;;18.93;41.56
60212;BME280;46079;48.686;15.598;2022-12-29T09:56:23;100063.22;;;18.93;41.61
60212;BME280;46079;48.686;15.598;2022-12-29T09:59:04;100076.31;;;18.93;41.78
60212;BME280;46079;48.686;15.598;2022-12-29T10:01:36;100076.16;;;18.95;41.64
60212;BME280;46079;48.686;15.598;2022-12-29T10:04:09;100064.03;;;18.94;41.62
60212;BME280;46079;48.686;15.598;2022-12-29T10:09:41;100054.38;;;18.94;41.83
60212;BME280;46079;48.686;15.598;2022-12-29T10:17:40;100062.22;;;18.94;41.60
60212;BME280;46079;48.686;15.598;2022-12-29T10:20:18;100062.94;;;18.96;41.34
60212;BME280;46079;48.686;15.598;2022-12-29T10:23:01;100050.66;;;18.97;41.70
60212;BME280;46079;48.686;15.598;2022-12-29T10:25:34;100045.44;;;18.97;41.80
60212;BME280;46079;48.686;15.598;2022-12-29T10:28:06;100051.50;;;18.97;41.71
60212;BME280;46079;48.686;15.598;2022-12-29T10:30:35;100043.63;;;18.97;41.71
60212;BME280;46079;48.686;15.598;2022-12-29T10:33:06;100054.13;;;18.97;41.81
60212;BME280;46079;48.686;15.598;2022-12-29T10:35:36;100046.25;;;18.97;41.71
60212;BME280;46079;48.686;15.598;2022-12-29T10:40:50;100035.75;;;18.97;41.53
60212;BME280;46079;48.686;15.598;2022-12-29T10:43:26;100034.00;;;18.98;41.56
60212;BME280;46079;48.686;15.598;2022-12-29T10:45:58;100037.44;;;18.98;41.86
60212;BME280;46079;48.686;15.598;2022-12-29T10:48:28;100044.34;;;18.99;41.68
60212;BME280;46079;48.686;15.598;2022-12-29T10:50:58;100042.69;;;18.98;41.78
60212;BME280;46079;48.686;15.598;2022-12-29T10:53:26;100044.34;;;18.99;41.80
60212;BME280;46079;48.686;15.598;2022-12-29T10:55:54;100046.16;;;18.99;41.71
60212;BME280;46079;48.686;15.598;2022-12-29T10:58:21;100041.72;;;18.99;41.74
60212;BME280;46079;48.686;15.598;2022-12-29T11:00:50;100046.97;;;18.99;41.69
60212;BME280;46079;48.686;15.598;2022-12-29T11:06:05;100043.38;;;19.00;41.65
60212;BME280;46079;48.686;15.598;2022-12-29T11:08:39;100039.09;;;18.99;41.83
60212;BME280;46079;48.686;15.598;2022-12-29T11:11:08;100038.13;;;19.00;41.69
60212;BME280;46079;48.686;15.598;2022-12-29T11:13:47;100021.59;;;19.00;41.72
60212;BME280;46079;48.686;15.598;2022-12-29T11:16:13;100025.03;;;19.00;41.69
60212;BME280;46079;48.686;15.598;2022-12-29T11:18:40;100017.16;;;19.00;41.47
60212;BME280;46079;48.686;15.598;2022-12-29T11:21:23;100020.75;;;18.99;41.55
60212;BME280;46079;48.686;15.598;2022-12-29T11:24:04;100016.34;;;19.00;41.69
60212;BME280;46079;48.686;15.598;2022-12-29T11:26:31;100024.19;;;19.00;41.72
60212;BME280;46079;48.686;15.598;2022-12-29T11:31:45;100022.41;;;19.00;41.69
60212;BME280;46079;48.686;15.598;2022-12-29T11:34:23;100025.03;;;19.00;41.69
60212;BME280;46079;48.686;15.598;2022-12-29T11:36:53;100005.84;;;19.00;41.60
60212;BME280;46079;48.686;15.598;2022-12-29T11:39:36;100007.66;;;18.99;41.68
60212;BME280;46079;48.686;15.598;2022-12-29T11:42:06;100004.06;;;19.00;41.63
60212;BME280;46079;48.686;15.598;2022-12-29T11:44:42;100004.06;;;19.00;41.58
60212;BME280;46079;48.686;15.598;2022-12-29T11:47:09;100015.41;;;19.01;41.56
60212;BME280;46079;48.686;15.598;2022-12-29T11:49:37;100007.38;;;19.02;41.26
60212;BME280;46079;48.686;15.598;2022-12-29T11:52:03;100005.75;;;19.01;41.60
60212;BME280;46079;48.686;15.598;2022-12-29T11:54:36;99995.25;;;19.01;41.57
60212;BME280;46079;48.686;15.598;2022-12-29T11:57:12;99990.00;;;19.01;41.75
60212;BME280;46079;48.686;15.598;2022-12-29T11:59:53;99994.44;;;19.01;41.74
60212;BME280;46079;48.686;15.598;2022-12-29T12:02:22;99990.84;;;19.02;41.65
60212;BME280;46079;48.686;15.598;2022-12-29T12:04:54;99996.09;;;19.02;41.90
60212;BME280;46079;48.686;15.598;2022-12-29T12:07:42;99992.63;;;19.01;41.59
60212;BME280;46079;48.686;15.598;2022-12-29T12:10:32;99990.84;;;19.02;41.59
60212;BME280;46079;48.686;15.598;2022-12-29T12:13:19;99983.78;;;19.02;41.56
60212;BME280;46079;48.686;15.598;2022-12-29T12:15:52;99982.16;;;19.01;41.50
60212;BME280;46079;48.686;15.598;2022-12-29T12:21:21;99979.53;;;19.01;41.54
60212;BME280;46079;48.686;15.598;2022-12-29T12:32:39;99975.22;;;19.00;41.61
60212;BME280;46079;48.686;15.598;2022-12-29T12:35:38;99974.28;;;19.01;41.57
60212;BME280;46079;48.686;15.598;2022-12-29T12:43:51;99973.47;;;19.01;41.56
60212;BME280;46079;48.686;15.598;2022-12-29T13:00:13;99958.66;;;19.00;41.47
60212;BME280;46079;48.686;15.598;2022-12-29T13:03:13;99958.56;;;19.01;41.50
60212;BME280;46079;48.686;15.598;2022-12-29T13:05:55;99955.94;;;19.01;41.32
60212;BME280;46079;48.686;15.598;2022-12-29T13:16:49;99950.69;;;19.01;41.60
60212;BME280;46079;48.686;15.598;2022-12-29T13:22:10;99960.47;;;18.99;41.55
60212;BME280;46079;48.686;15.598;2022-12-29T13:30:08;99936.75;;;19.01;41.54
60212;BME280;46079;48.686;15.598;2022-12-29T13:40:32;99956.88;;;19.00;41.55
60212;BME280;46079;48.686;15.598;2022-12-29T13:43:01;99950.81;;;19.00;41.57
60212;BME280;46079;48.686;15.598;2022-12-29T13:45:29;99962.13;;;19.00;41.44
60212;BME280;46079;48.686;15.598;2022-12-29T13:47:59;99955.22;;;18.99;41.45
60212;BME280;46079;48.686;15.598;2022-12-29T13:50:28;99960.47;;;18.99;41.38
60212;BME280;46079;48.686;15.598;2022-12-29T13:56:12;99963.09;;;18.99;41.53
60212;BME280;46079;48.686;15.598;2022-12-29T14:04:56;99969.31;;;18.98;41.65
60212;BME280;46079;48.686;15.598;2022-12-29T14:07:22;99964.06;;;18.98;41.42
60212;BME280;46079;48.686;15.598;2022-12-29T14:09:50;99964.88;;;18.99;41.64
60212;BME280;46079;48.686;15.598;2022-12-29T14:12:36;99959.75;;;18.97;41.53
60212;BME280;46079;48.686;15.598;2022-12-29T14:15:23;99967.63;;;18.97;41.56
60212;BME280;46079;48.686;15.598;2022-12-29T14:18:03;99965.00;;;18.97;41.47
60212;BME280;46079;48.686;15.598;2022-12-29T14:20:30;99970.22;;;18.97;41.53
60212;BME280;46079;48.686;15.598;2022-12-29T14:30:58;99971.22;;;18.96;41.57
60212;BME280;46079;48.686;15.598;2022-12-29T14:33:25;99958.22;;;18.95;41.53
60212;BME280;46079;48.686;15.598;2022-12-29T14:35:52;99965.97;;;18.96;41.56
60212;BME280;46079;48.686;15.598;2022-12-29T14:38:29;99965.97;;;18.96;41.53
60212;BME280;46079;48.686;15.598;2022-12-29T14:43:57;99977.41;;;18.95;41.67
60212;BME280;46079;48.686;15.598;2022-12-29T14:46:24;99980.03;;;18.95;41.56
60212;BME280;46079;48.686;15.598;2022-12-29T14:48:56;99975.75;;;18.94;41.37
60212;BME280;46079;48.686;15.598;2022-12-29T14:51:33;99967.88;;;18.94;41.58
60212;BME280;46079;48.686;15.598;2022-12-29T14:57:05;99966.22;;;18.93;41.34
60212;BME280;46079;48.686;15.598;2022-12-29T14:59:32;99966.22;;;18.93;41.70
60212;BME280;46079;48.686;15.598;2022-12-29T15:02:02;99961.91;;;18.92;41.59
60212;BME280;46079;48.686;15.598;2022-12-29T15:04:33;99969.78;;;18.92;41.62